Flight Track Log - Related Links

Times and Time Zones

All times are in EDT time to prevent confusion due to time zone crossing. See the TYR1107 flight status page for this flight to view local times or setup timezone preferences in your user account.

Time Position Orientation Groundspeed Altitude Reporting Facility
EDT Latitude Longitude Course Direction KTS MPH feet Rate Location/Type
Tue 12:46:00 PM 47.9820 12.6547 309° West  Level Estimated
Tue 12:47:00 PM 48.0290 12.5669 309° West  Level Estimated
Tue 12:48:00 PM 48.0760 12.4790 309° West  Level Estimated
Tue 12:49:00 PM 48.1228 12.3908 309° West  Level Estimated
Tue 12:50:00 PM 48.1696 12.3026 309° West  Level Estimated
Tue 12:51:00 PM 48.2164 12.2141 308° West  Level Estimated
Tue 12:52:00 PM 48.2631 12.1255 308° West  Level Estimated
Tue 12:53:00 PM 48.3097 12.0367 308° West  Level Estimated
Tue 12:54:00 PM 48.3562 11.9478 308° West  Level Estimated
Tue 12:55:00 PM 48.4026 11.8587 308° West  Level Estimated
Tue 12:56:00 PM 48.4491 11.7695 308° West  Level Estimated
Tue 12:57:00 PM 48.4954 11.6800 308° West  Level Estimated
Tue 12:58:00 PM 48.5416 11.5905 308° West  Level Estimated
Tue 12:59:00 PM 48.5878 11.5007 308° West  Level Estimated
Tue 01:00:00 PM 48.6339 11.4108 308° West  Level Estimated
Tue 01:01:00 PM 48.6800 11.3207 308° West  Level Estimated
Tue 01:02:00 PM 48.7260 11.2305 308° West  Level Estimated
Tue 01:03:00 PM 48.7719 11.1401 308° West  Level Estimated
Tue 01:04:00 PM 48.8177 11.0495 308° West  Level Estimated
Tue 01:05:00 PM 48.8635 10.9587 307° West  Level Estimated
Tue 01:06:00 PM 48.9092 10.8679 307° West  Level Estimated
Tue 01:07:00 PM 48.9548 10.7768 307° West  Level Estimated
Tue 01:08:00 PM 49.0004 10.6855 307° West  Level Estimated
Tue 01:09:00 PM 49.0458 10.5941 307° West  Level Estimated
Tue 01:10:00 PM 49.0913 10.5026 307° West  Level Estimated
Tue 01:11:00 PM 49.1366 10.4108 307° West  Level Estimated
Tue 01:12:00 PM 49.1818 10.3189 307° West  Level Estimated
Tue 01:13:00 PM 49.2270 10.2269 307° West  Level Estimated
Tue 01:14:00 PM 49.2721 10.1346 307° West  Level Estimated
Tue 01:15:00 PM 49.3172 10.0422 307° West  Level Estimated
Tue 01:16:00 PM 49.3622 9.9496 307° West  Level Estimated
Tue 01:17:00 PM 49.4071 9.8569 307° West  Level Estimated
Tue 01:18:00 PM 49.4519 9.7640 307° West  Level Estimated
Tue 01:19:00 PM 49.4966 9.6709 307° West  Level Estimated
Tue 01:20:00 PM 49.5413 9.5776 306° West  Level Estimated
Tue 01:21:00 PM 49.5859 9.4842 306° West  Level Estimated
Tue 01:22:00 PM 49.6304 9.3906 306° West  Level Estimated
Tue 01:23:00 PM 49.6749 9.2968 306° West  Level Estimated
Tue 01:24:00 PM 49.7192 9.2029 306° West  Level Estimated
Tue 01:25:00 PM 49.7635 9.1088 306° West  Level Estimated
Tue 01:26:00 PM 49.8077 9.0145 306° West  Level Estimated
Tue 01:27:00 PM 49.8519 8.9200 306° West  Level Estimated
Tue 01:28:00 PM 49.8959 8.8254 306° West  Level Estimated
Tue 01:29:00 PM 49.9399 8.7306 306° West  Level Estimated
Tue 01:30:00 PM 49.9838 8.6356 306° West  Level Estimated
Tue 01:31:00 PM 50.0264 8.5431 306° West  Level Estimated
Tue 01:32:00 PM 50.0264 8.5431 73° East  Level Estimated
Tue 01:33:00 PM 50.0264 8.5431 73° East  Level Estimated
Tue 01:34:00 PM 50.0264 8.5431 73° East  Level Estimated
Tue 01:35:00 PM 50.0264 8.5431 73° East  Level Estimated
Tue 01:36:00 PM 50.0264 8.5431 73° East  Level Estimated
Tue 01:37:00 PM 50.0264 8.5431 73° East  Level Estimated
Tue 01:38:00 PM 50.0264 8.5431 73° East  Level Estimated
Tue 01:39:00 PM 50.0264 8.5431 73° East  Level Estimated
Tue 01:40:00 PM 50.0264 8.5431 73° East  Level Estimated
Tue 01:41:00 PM 50.0264 8.5431 73° East  Level Estimated
Tue 01:42:00 PM 50.0264 8.5431 73° East  Level Estimated
Tue 01:43:00 PM 50.0264 8.5431 73° East  Level Estimated
Tue 01:44:00 PM 50.0264 8.5431 73° East  Level Estimated
Tue 01:45:00 PM 50.0264 8.5431 73° East  Level Estimated
Tue 01:46:00 PM 50.0264 8.5431 73° East  Level Estimated
Tue 01:47:00 PM 50.0264 8.5431 73° East  Level Estimated

Login

Don't have an account? Register now (free) for customized features, flight alerts, and more!